createdAt,value
2018-12-02T00:01:00.265Z,177.87
2018-12-02T00:03:30.317Z,172.73
2018-12-02T00:06:00.112Z,134.93
2018-12-02T00:08:30.357Z,115.93
2018-12-02T00:11:00.162Z,99.27
2018-12-02T00:13:30.129Z,77.20
2018-12-02T00:16:00.213Z,67.53
2018-12-02T00:18:30.357Z,58.30
2018-12-02T00:21:01.584Z,43.70
2018-12-02T00:23:31.314Z,48.93
2018-12-02T00:26:01.204Z,42.93
2018-12-02T00:28:42.442Z,38.95
2018-12-02T00:31:12.298Z,38.17
2018-12-02T00:33:42.244Z,42.87
2018-12-02T00:36:12.331Z,44.20
2018-12-02T00:38:42.361Z,40.03
2018-12-02T00:41:12.750Z,42.50
2018-12-02T00:43:42.510Z,39.23
2018-12-02T00:46:12.678Z,38.43
2018-12-02T00:48:42.439Z,44.40
2018-12-02T00:51:12.215Z,51.53
2018-12-02T00:53:41.987Z,46.10
2018-12-02T00:56:10.217Z,46.53
2018-12-02T00:58:40.485Z,44.23
2018-12-02T01:01:10.226Z,46.10
2018-12-02T01:03:40.124Z,39.07
2018-12-02T01:06:10.221Z,44.30
2018-12-02T01:08:40.024Z,46.47
2018-12-02T01:11:12.167Z,48.57
2018-12-02T01:13:42.244Z,48.07
2018-12-02T01:16:13.528Z,51.50
2018-12-02T01:18:43.246Z,45.00
2018-12-02T01:21:13.040Z,45.13
2018-12-02T01:23:43.084Z,43.40
2018-12-02T01:26:13.156Z,48.17
2018-12-02T01:28:43.326Z,44.08
2018-12-02T01:31:13.432Z,46.77
2018-12-02T01:33:43.184Z,48.47
2018-12-02T01:36:13.143Z,46.37
2018-12-02T01:38:43.055Z,48.27
2018-12-02T01:41:13.355Z,50.95
2018-12-02T01:43:43.383Z,48.78
2018-12-02T01:46:13.192Z,44.15
2018-12-02T01:48:43.341Z,42.70
2018-12-02T01:51:13.191Z,42.13
2018-12-02T01:53:43.359Z,40.93
2018-12-02T01:56:13.278Z,40.03
2018-12-02T01:58:43.151Z,37.17
2018-12-02T02:01:17.382Z,38.30
2018-12-02T02:03:47.122Z,40.10
2018-12-02T02:06:17.183Z,38.80
2018-12-02T02:08:47.119Z,41.90
2018-12-02T02:11:17.160Z,36.93
2018-12-02T02:13:47.545Z,36.57
2018-12-02T02:16:17.407Z,37.13
2018-12-02T02:18:47.525Z,33.53
2018-12-02T02:21:17.444Z,32.90
2018-12-02T02:23:49.769Z,36.05
2018-12-02T02:26:18.480Z,29.97
2018-12-02T02:28:48.636Z,31.73
2018-12-02T02:31:18.475Z,34.73
2018-12-02T02:33:48.829Z,33.03
2018-12-02T02:36:21.392Z,42.88
2018-12-02T02:38:51.386Z,40.97
2018-12-02T02:41:21.601Z,43.87
2018-12-02T02:43:51.303Z,55.43
2018-12-02T02:46:21.083Z,39.00
2018-12-02T02:48:51.180Z,32.95
2018-12-02T02:51:21.175Z,45.10
2018-12-02T02:53:51.107Z,52.93
2018-12-02T02:56:21.290Z,62.53
2018-12-02T02:58:51.273Z,53.70
2018-12-02T03:01:21.089Z,52.50
2018-12-02T03:03:51.332Z,50.03
2018-12-02T03:06:21.128Z,57.48
2018-12-02T03:08:51.230Z,56.68
2018-12-02T03:11:21.323Z,59.40
2018-12-02T03:13:51.547Z,61.23
2018-12-02T03:16:21.280Z,60.37
2018-12-02T03:18:53.467Z,71.17
2018-12-02T03:21:23.188Z,64.47
2018-12-02T03:23:53.305Z,68.75
2018-12-02T03:26:23.392Z,64.07
2018-12-02T03:28:53.452Z,69.13
2018-12-02T03:31:23.792Z,57.87
2018-12-02T03:33:53.918Z,65.78
2018-12-02T03:39:09.450Z,54.03
2018-12-02T03:41:39.388Z,56.23
2018-12-02T03:44:09.574Z,57.93
2018-12-02T03:46:39.476Z,62.73
2018-12-02T03:49:09.562Z,56.70
2018-12-02T03:51:39.556Z,59.13
2018-12-02T03:54:09.374Z,56.53
2018-12-02T03:56:39.801Z,61.87
2018-12-02T03:59:09.640Z,61.47
2018-12-02T04:01:39.492Z,59.20
2018-12-02T04:04:09.359Z,62.77
2018-12-02T04:06:39.479Z,54.77
2018-12-02T04:09:10.639Z,57.70
2018-12-02T04:11:40.463Z,56.77
2018-12-02T04:14:10.604Z,64.83
2018-12-02T04:16:40.423Z,57.90
2018-12-02T04:19:10.232Z,59.77
2018-12-02T04:21:40.389Z,63.30
2018-12-02T04:24:10.348Z,58.67
2018-12-02T04:26:40.133Z,56.53
2018-12-02T04:29:10.907Z,56.63
2018-12-02T04:31:40.939Z,54.13
2018-12-02T04:34:11.238Z,51.45
2018-12-02T04:36:49.451Z,55.63
2018-12-02T04:39:19.306Z,52.93
2018-12-02T04:41:49.460Z,56.60
2018-12-02T04:44:19.441Z,57.53
2018-12-02T04:46:49.303Z,50.93
2018-12-02T04:49:19.367Z,51.17
2018-12-02T04:51:49.265Z,50.93
2018-12-02T04:54:19.154Z,46.90
2018-12-02T04:56:49.404Z,48.15
2018-12-02T04:59:19.379Z,48.80
2018-12-02T05:01:49.543Z,53.90
2018-12-02T05:04:19.563Z,55.87
2018-12-02T05:06:49.354Z,45.23
2018-12-02T05:09:19.284Z,47.43
2018-12-02T05:11:49.160Z,46.40
2018-12-02T05:14:19.297Z,49.60
2018-12-02T05:16:49.416Z,45.08
2018-12-02T05:19:19.383Z,50.40
2018-12-02T05:21:49.237Z,49.37
2018-12-02T05:24:19.276Z,49.57
2018-12-02T05:26:49.311Z,45.60
2018-12-02T05:29:19.123Z,47.43
2018-12-02T05:31:49.262Z,46.70
2018-12-02T05:34:19.130Z,48.47
2018-12-02T05:36:49.217Z,46.83
2018-12-02T05:39:19.688Z,36.53
2018-12-02T05:41:54.350Z,36.97
2018-12-02T05:44:24.362Z,45.57
2018-12-02T05:46:54.224Z,44.70
2018-12-02T05:49:24.422Z,45.45
2018-12-02T05:51:54.592Z,42.87
2018-12-02T05:54:24.398Z,36.90
2018-12-02T05:56:54.360Z,46.17
2018-12-02T05:59:24.179Z,44.70
2018-12-02T06:01:54.216Z,45.30
2018-12-02T06:04:24.163Z,41.60
2018-12-02T06:06:54.119Z,40.80
2018-12-02T06:09:24.359Z,31.10
2018-12-02T06:11:54.428Z,49.27
2018-12-02T06:14:24.788Z,41.80
2018-12-02T06:16:54.864Z,42.63
2018-12-02T06:19:24.643Z,41.07
2018-12-02T06:21:54.595Z,39.87
2018-12-02T06:24:24.475Z,48.53
2018-12-02T06:26:54.292Z,47.40
2018-12-02T06:29:24.420Z,43.60
2018-12-02T06:31:54.224Z,40.00
2018-12-02T06:34:24.332Z,43.00
2018-12-02T06:36:54.188Z,42.93
2018-12-02T06:39:24.396Z,40.17
2018-12-02T06:41:54.496Z,39.50
2018-12-02T06:44:24.579Z,43.97
2018-12-02T06:46:55.529Z,42.27
2018-12-02T06:49:25.345Z,48.33
2018-12-02T06:51:55.222Z,41.20
2018-12-02T06:54:26.987Z,41.95
2018-12-02T06:56:57.799Z,36.83
2018-12-02T07:00:42.821Z,31.97
2018-12-02T07:03:25.925Z,42.13
2018-12-02T07:05:56.358Z,56.28
2018-12-02T07:08:26.317Z,44.67
2018-12-02T07:10:56.509Z,27.27
2018-12-02T07:13:27.455Z,41.67
2018-12-02T07:15:57.844Z,37.97
2018-12-02T07:18:30.413Z,35.57
2018-12-02T07:21:05.653Z,37.13
2018-12-02T07:23:37.209Z,37.13
2018-12-02T07:26:07.971Z,34.57
2018-12-02T07:28:38.045Z,34.27
2018-12-02T07:31:08.198Z,37.00
2018-12-02T07:33:38.341Z,37.60
2018-12-02T07:36:09.662Z,37.47
2018-12-02T07:40:18.741Z,40.30
2018-12-02T07:42:48.747Z,41.27
2018-12-02T07:45:18.641Z,40.08
2018-12-02T07:47:48.732Z,40.23
2018-12-02T07:50:18.743Z,41.50
2018-12-02T07:52:48.572Z,35.90
2018-12-02T07:55:18.491Z,34.13
2018-12-02T07:57:48.823Z,35.57
2018-12-02T08:00:19.044Z,31.82
2018-12-02T08:02:49.204Z,36.17
2018-12-02T08:05:20.267Z,29.70
2018-12-02T08:07:51.763Z,30.43
2018-12-02T08:10:21.760Z,28.27
2018-12-02T08:12:51.624Z,33.63
2018-12-02T08:15:21.721Z,27.33
2018-12-02T08:17:51.871Z,31.50
2018-12-02T08:20:22.408Z,37.93
2018-12-02T08:22:52.404Z,36.87
2018-12-02T08:25:22.223Z,29.87
2018-12-02T08:27:52.360Z,31.57
2018-12-02T08:30:25.320Z,45.60
2018-12-02T08:32:56.218Z,32.70
2018-12-02T08:35:27.780Z,29.80
2018-12-02T08:37:59.076Z,27.80
2018-12-02T08:40:29.372Z,42.30
2018-12-02T08:42:59.308Z,31.63
2018-12-02T08:45:29.165Z,36.67
2018-12-02T08:47:59.471Z,46.73
2018-12-02T08:50:29.521Z,32.87
2018-12-02T08:52:59.570Z,32.97
2018-12-02T08:55:29.595Z,35.77
2018-12-02T08:57:59.851Z,29.33
2018-12-02T09:00:30.082Z,37.60
2018-12-02T09:03:01.604Z,37.57
2018-12-02T09:05:31.548Z,34.30
2018-12-02T09:08:02.187Z,35.33
2018-12-02T09:10:34.520Z,28.40
2018-12-02T09:13:06.677Z,35.23
2018-12-02T09:15:36.774Z,37.90
2018-12-02T09:18:08.783Z,32.83
2018-12-02T09:20:39.036Z,31.87
2018-12-02T09:23:13.077Z,31.23
2018-12-02T09:25:45.660Z,30.10
2018-12-02T09:28:16.115Z,25.93
2018-12-02T09:30:47.011Z,22.25
2018-12-02T09:33:19.249Z,30.90
2018-12-02T09:35:50.366Z,29.87
2018-12-02T09:38:20.502Z,28.83
2018-12-02T09:40:50.616Z,34.77
2018-12-02T09:43:21.017Z,35.00
2018-12-02T09:45:51.702Z,35.63
2018-12-02T09:48:30.774Z,33.47
2018-12-02T09:51:00.553Z,34.73
2018-12-02T09:53:30.536Z,29.23
2018-12-02T09:56:01.340Z,33.03
2018-12-02T09:58:32.095Z,32.13
2018-12-02T10:01:03.288Z,33.45
2018-12-02T10:03:33.724Z,32.77
2018-12-02T10:06:03.586Z,32.37
2018-12-02T10:08:33.468Z,33.93
2018-12-02T10:11:03.622Z,29.83
2018-12-02T10:13:34.453Z,30.27
2018-12-02T10:16:04.425Z,32.73
2018-12-02T10:18:34.373Z,30.23
2018-12-02T10:21:05.414Z,31.57
2018-12-02T10:23:36.192Z,33.83
2018-12-02T10:26:08.676Z,33.37
2018-12-02T10:28:38.675Z,33.70
2018-12-02T10:31:08.455Z,31.93
2018-12-02T10:33:38.577Z,34.27
2018-12-02T10:36:08.544Z,35.97
2018-12-02T10:38:38.579Z,32.50
2018-12-02T10:41:08.633Z,32.63
2018-12-02T10:43:41.340Z,31.50
2018-12-02T10:46:13.349Z,27.77
2018-12-02T10:48:44.556Z,32.20
2018-12-02T10:51:16.447Z,32.47
2018-12-02T10:53:51.598Z,38.60
2018-12-02T10:56:21.755Z,35.27
2018-12-02T10:58:51.966Z,39.50
2018-12-02T11:01:29.871Z,37.00
2018-12-02T11:04:03.008Z,37.93
2018-12-02T11:06:37.522Z,39.23
2018-12-02T11:09:13.360Z,38.70
2018-12-02T11:11:43.583Z,39.77
2018-12-02T11:14:13.719Z,38.93
2018-12-02T11:16:43.626Z,41.87
2018-12-02T11:19:13.657Z,38.83
2018-12-02T11:21:44.281Z,38.47
2018-12-02T11:24:15.016Z,37.13
2018-12-02T11:26:45.258Z,38.83
2018-12-02T11:29:15.567Z,38.00
2018-12-02T11:31:45.351Z,39.20
2018-12-02T11:34:15.554Z,40.83
2018-12-02T11:36:45.607Z,43.87
2018-12-02T11:39:15.449Z,55.17
2018-12-02T11:41:45.676Z,46.03
2018-12-02T11:44:15.789Z,40.23
2018-12-02T11:46:46.634Z,47.57
2018-12-02T11:49:16.897Z,41.50
2018-12-02T11:51:46.801Z,37.30
2018-12-02T11:54:16.783Z,46.17
2018-12-02T11:56:46.903Z,36.23
2018-12-02T11:59:17.072Z,46.30
2018-12-02T12:01:47.843Z,34.55
2018-12-02T12:04:18.088Z,37.05
2018-12-02T12:06:48.885Z,36.23
2018-12-02T12:09:20.138Z,34.00
2018-12-02T12:11:50.787Z,34.67
2018-12-02T12:14:20.732Z,29.57
2018-12-02T12:16:51.679Z,30.17
2018-12-02T12:19:21.633Z,33.00
2018-12-02T12:21:51.615Z,45.07
2018-12-02T12:24:23.342Z,33.80
2018-12-02T12:26:53.483Z,34.07
2018-12-02T12:29:24.660Z,34.80
2018-12-02T12:31:54.610Z,30.20
2018-12-02T12:34:24.745Z,33.90
2018-12-02T12:36:54.636Z,31.87
2018-12-02T12:39:24.480Z,36.95
2018-12-02T12:41:54.479Z,36.50
2018-12-02T12:44:24.808Z,29.67
2018-12-02T12:46:54.623Z,33.77
2018-12-02T12:49:24.522Z,35.33
2018-12-02T12:51:54.608Z,38.90
2018-12-02T12:54:24.321Z,37.43
2018-12-02T12:56:54.351Z,43.53
2018-12-02T12:59:24.637Z,34.53
2018-12-02T13:01:54.521Z,40.47
2018-12-02T13:04:24.421Z,38.67
2018-12-02T13:06:54.359Z,52.37
2018-12-02T13:09:24.634Z,70.83
2018-12-02T13:11:54.480Z,93.60
2018-12-02T13:14:24.491Z,70.33
2018-12-02T13:16:54.640Z,44.93
2018-12-02T13:19:24.409Z,56.50
2018-12-02T13:21:54.288Z,74.97
2018-12-02T13:24:24.329Z,59.95
2018-12-02T13:26:54.398Z,57.90
2018-12-02T13:29:24.382Z,37.70
2018-12-02T13:31:54.583Z,33.20
2018-12-02T13:34:25.543Z,30.10
2018-12-02T13:36:55.393Z,27.70
2018-12-02T13:39:25.143Z,31.43
2018-12-02T13:41:55.575Z,32.75
2018-12-02T13:44:25.598Z,34.47
2018-12-02T13:46:55.516Z,32.65
2018-12-02T13:49:25.574Z,32.33
2018-12-02T13:51:56.017Z,36.70
2018-12-02T13:54:31.343Z,33.38
2018-12-02T13:57:06.451Z,31.63
2018-12-02T13:59:36.989Z,31.27
2018-12-02T14:02:08.647Z,38.85
2018-12-02T14:04:38.504Z,30.30
2018-12-02T14:09:50.295Z,34.87
2018-12-02T14:12:20.381Z,31.10
2018-12-02T14:14:50.363Z,32.60
2018-12-02T14:17:22.871Z,38.47
2018-12-02T14:19:53.086Z,41.63
2018-12-02T14:22:24.920Z,42.98
2018-12-02T14:24:56.558Z,41.73
2018-12-02T14:27:27.271Z,39.00
2018-12-02T14:29:58.395Z,45.50
2018-12-02T14:32:28.927Z,49.67
2018-12-02T14:34:58.908Z,54.73
2018-12-02T14:37:29.223Z,56.43
2018-12-02T14:39:59.211Z,56.27
2018-12-02T14:42:29.243Z,54.33
2018-12-02T14:44:59.617Z,54.63
2018-12-02T14:47:29.384Z,55.83
2018-12-02T14:50:29.935Z,56.83
2018-12-02T14:53:00.991Z,82.93
2018-12-02T14:55:31.642Z,103.42
2018-12-02T14:58:03.027Z,94.30
2018-12-02T15:00:35.592Z,57.93
2018-12-02T15:03:18.363Z,53.90
2018-12-02T15:05:49.068Z,71.93
2018-12-02T15:08:19.599Z,81.72
2018-12-02T15:10:49.798Z,110.00
2018-12-02T15:13:22.281Z,139.07
2018-12-02T15:15:52.472Z,159.17
2018-12-02T15:18:22.407Z,104.27
2018-12-02T15:20:52.478Z,90.27
2018-12-02T15:23:22.643Z,98.93
2018-12-02T15:25:53.527Z,147.47
2018-12-02T15:28:23.620Z,124.30
2018-12-02T15:30:58.639Z,108.73
2018-12-02T15:33:28.569Z,117.23
2018-12-02T15:35:59.142Z,68.77
2018-12-02T15:38:29.615Z,62.23
2018-12-02T15:40:59.408Z,37.13
2018-12-02T15:43:29.693Z,100.70
2018-12-02T15:45:59.705Z,535.80
2018-12-02T15:48:29.813Z,145.33
2018-12-02T15:50:59.928Z,92.27
2018-12-02T15:53:30.172Z,87.70
2018-12-02T15:56:00.225Z,70.97
2018-12-02T15:58:30.411Z,61.33
2018-12-02T16:01:00.592Z,99.53
2018-12-02T16:03:30.391Z,141.33
2018-12-02T16:06:02.815Z,138.17
2018-12-02T16:08:35.428Z,112.90
2018-12-02T16:11:07.935Z,62.17
2018-12-02T16:13:37.919Z,60.67
2018-12-02T16:16:09.007Z,44.78
2018-12-02T16:18:39.017Z,50.52
2018-12-02T16:21:09.137Z,68.80
2018-12-02T16:23:39.188Z,65.20
2018-12-02T16:26:09.048Z,49.50
2018-12-02T16:28:39.136Z,41.60
2018-12-02T16:31:09.196Z,51.33
2018-12-02T16:33:39.303Z,47.10
2018-12-02T16:36:09.024Z,41.55
2018-12-02T16:38:39.176Z,41.93
2018-12-02T16:41:09.204Z,38.83
2018-12-02T16:43:39.128Z,41.93
2018-12-02T16:46:09.662Z,38.75
2018-12-02T16:48:39.505Z,41.17
2018-12-02T16:51:09.385Z,34.27
2018-12-02T16:53:39.519Z,34.13
2018-12-02T16:56:16.124Z,36.03
2018-12-02T16:58:53.687Z,35.67
2018-12-02T17:01:26.001Z,38.90
2018-12-02T17:03:58.169Z,41.87
2018-12-02T17:06:28.187Z,38.70
2018-12-02T17:08:59.271Z,29.83
2018-12-02T17:11:29.410Z,36.53
2018-12-02T17:13:59.134Z,44.63
2018-12-02T17:16:30.459Z,48.02
2018-12-02T17:19:00.815Z,36.43
2018-12-02T17:21:30.553Z,36.47
2018-12-02T17:24:02.207Z,30.95
2018-12-02T17:26:32.215Z,39.77
2018-12-02T17:29:02.204Z,36.43
2018-12-02T17:31:37.138Z,34.37
2018-12-02T17:34:07.655Z,34.20
2018-12-02T17:36:37.582Z,32.05
2018-12-02T17:39:16.375Z,28.87
2018-12-02T17:41:49.032Z,31.37
2018-12-02T17:44:19.432Z,28.43
2018-12-02T17:46:49.680Z,29.63
2018-12-02T17:49:19.991Z,25.77
2018-12-02T17:51:50.751Z,26.70
2018-12-02T17:54:20.804Z,37.90
2018-12-02T17:56:51.091Z,23.32
2018-12-02T17:59:21.463Z,26.00
2018-12-02T18:01:51.675Z,27.30
2018-12-02T18:04:21.589Z,21.57
2018-12-02T18:06:51.661Z,22.37
2018-12-02T18:09:22.553Z,22.90
2018-12-02T18:11:52.980Z,28.87
2018-12-02T18:14:23.639Z,22.27
2018-12-02T18:16:53.675Z,31.60
2018-12-02T18:19:23.784Z,21.70
2018-12-02T18:21:55.019Z,28.73
2018-12-02T18:24:23.772Z,24.03
2018-12-02T18:26:53.685Z,21.77
2018-12-02T18:29:23.620Z,31.83
2018-12-02T18:31:53.876Z,24.33
2018-12-02T18:34:23.788Z,33.53
2018-12-02T18:36:54.531Z,21.83
2018-12-02T18:39:24.418Z,26.13
2018-12-02T18:41:55.897Z,24.17
2018-12-02T18:44:27.280Z,21.33
2018-12-02T18:46:57.545Z,28.77
2018-12-02T18:49:27.423Z,23.40
2018-12-02T18:51:57.999Z,18.27
2018-12-02T18:54:28.609Z,20.63
2018-12-02T18:56:58.593Z,22.23
2018-12-02T18:59:28.987Z,15.60
2018-12-02T19:01:59.462Z,16.15
2018-12-02T19:04:29.384Z,59.37
2018-12-02T19:06:59.382Z,20.83
2018-12-02T19:09:30.670Z,16.17
2018-12-02T19:12:00.588Z,34.27
2018-12-02T19:14:33.127Z,15.93
2018-12-02T19:17:04.032Z,21.40
2018-12-02T19:19:35.304Z,69.27
2018-12-02T19:22:07.509Z,20.68
2018-12-02T19:24:37.786Z,20.70
2018-12-02T19:27:07.793Z,28.23
2018-12-02T19:29:38.162Z,26.27
2018-12-02T19:32:09.186Z,13.55
2018-12-02T19:34:39.485Z,20.07
2018-12-02T19:37:11.428Z,15.40
2018-12-02T19:39:41.488Z,14.65
2018-12-02T19:42:12.960Z,12.95
2018-12-02T19:44:43.121Z,10.55
2018-12-02T19:47:13.710Z,14.97
2018-12-02T19:49:43.971Z,14.67
2018-12-02T19:52:14.833Z,12.68
2018-12-02T19:54:45.105Z,14.33
2018-12-02T19:57:15.818Z,14.50
2018-12-02T19:59:45.875Z,15.23
2018-12-02T20:02:16.635Z,11.97
2018-12-02T20:04:46.751Z,15.93
2018-12-02T20:07:17.050Z,15.20
2018-12-02T20:09:47.730Z,14.68
2018-12-02T20:12:18.506Z,16.50
2018-12-02T20:14:49.360Z,13.60
2018-12-02T20:17:19.504Z,14.47
2018-12-02T20:19:55.093Z,16.23
2018-12-02T20:22:25.357Z,16.33
2018-12-02T20:25:05.548Z,14.60
2018-12-02T20:27:38.519Z,16.17
2018-12-02T20:30:12.080Z,14.43
2018-12-02T20:32:42.310Z,13.20
2018-12-02T20:35:12.995Z,14.23
2018-12-02T20:37:43.361Z,11.95
2018-12-02T20:40:15.845Z,15.67
2018-12-02T20:42:46.384Z,11.03
2018-12-02T20:45:17.697Z,9.90
2018-12-02T20:47:48.744Z,14.10
2018-12-02T20:50:21.188Z,12.05
2018-12-02T20:52:51.659Z,13.13
2018-12-02T20:55:23.967Z,15.40
2018-12-02T20:57:56.232Z,14.47
2018-12-02T21:00:26.511Z,11.07
2018-12-02T21:03:03.212Z,13.33
2018-12-02T21:05:35.464Z,10.78
2018-12-02T21:08:05.704Z,14.53
2018-12-02T21:10:36.844Z,13.43
2018-12-02T21:13:07.498Z,10.57
2018-12-02T21:15:37.960Z,13.90
2018-12-02T21:18:08.249Z,14.58
2018-12-02T21:20:38.558Z,15.00
2018-12-02T21:23:08.592Z,12.40
2018-12-02T21:25:38.581Z,14.17
2018-12-02T21:28:09.962Z,12.23
2018-12-02T21:30:40.777Z,18.12
2018-12-02T21:33:11.034Z,13.83
2018-12-02T21:35:41.364Z,13.70
2018-12-02T21:38:11.478Z,14.67
2018-12-02T21:40:41.540Z,12.17
2018-12-02T21:43:11.509Z,12.07
2018-12-02T21:45:41.635Z,11.07
2018-12-02T21:48:13.538Z,14.15
2018-12-02T21:50:44.424Z,13.53
2018-12-02T21:53:14.283Z,14.23
2018-12-02T21:55:44.221Z,14.13
2018-12-02T21:58:14.506Z,12.47
2018-12-02T22:00:46.034Z,15.23
2018-12-02T22:03:16.459Z,16.67
2018-12-02T22:05:46.448Z,13.13
2018-12-02T22:08:16.728Z,15.90
2018-12-02T22:10:46.691Z,18.33
2018-12-02T22:13:16.752Z,16.70
2018-12-02T22:15:46.725Z,14.47
2018-12-02T22:18:16.744Z,15.47
2018-12-02T22:20:46.545Z,14.83
2018-12-02T22:23:16.445Z,14.63
2018-12-02T22:25:46.384Z,14.97
2018-12-02T22:28:16.176Z,13.33
2018-12-02T22:30:46.278Z,13.43
2018-12-02T22:33:16.477Z,14.60
2018-12-02T22:35:46.643Z,16.13
2018-12-02T22:38:16.491Z,17.07
2018-12-02T22:40:46.553Z,14.17
2018-12-02T22:43:16.419Z,13.77
2018-12-02T22:45:46.434Z,19.00
2018-12-02T22:48:16.562Z,15.60
2018-12-02T22:50:46.393Z,14.60
2018-12-02T22:53:16.484Z,12.57
2018-12-02T22:55:46.567Z,13.37
2018-12-02T22:58:17.521Z,13.35
2018-12-02T23:00:53.089Z,16.40
2018-12-02T23:03:23.193Z,13.77
2018-12-02T23:05:53.810Z,11.87
2018-12-02T23:08:23.815Z,12.37
2018-12-02T23:10:54.113Z,16.42
2018-12-02T23:13:24.493Z,12.30
2018-12-02T23:15:54.586Z,13.68
2018-12-02T23:18:25.636Z,13.38
2018-12-02T23:20:55.458Z,12.20
2018-12-02T23:23:25.271Z,13.33
2018-12-02T23:25:55.603Z,14.90
2018-12-02T23:28:25.443Z,13.50
2018-12-02T23:30:55.593Z,12.50
2018-12-02T23:33:25.643Z,14.33
2018-12-02T23:35:55.424Z,13.73
2018-12-02T23:38:25.241Z,15.37
2018-12-02T23:40:55.419Z,27.00
2018-12-02T23:43:25.308Z,21.37
2018-12-02T23:45:55.458Z,18.63
2018-12-02T23:48:25.511Z,12.73
2018-12-02T23:50:55.667Z,15.50
2018-12-02T23:53:25.524Z,22.33
2018-12-02T23:55:55.464Z,15.77
2018-12-02T23:58:25.472Z,13.47
